createdAt,value
2023-04-03T00:00:06.034Z,10.60
2023-04-03T00:05:08.652Z,10.40
2023-04-03T00:10:11.064Z,10.30
2023-04-03T00:15:13.634Z,10.10
2023-04-03T00:20:15.696Z,10.00
2023-04-03T00:25:17.716Z,10.00
2023-04-03T00:30:21.705Z,10.00
2023-04-03T00:35:25.309Z,9.90
2023-04-03T00:40:28.528Z,9.90
2023-04-03T00:45:34.356Z,9.80
2023-04-03T00:50:39.558Z,9.70
2023-04-03T00:55:44.023Z,9.60
2023-04-03T01:00:52.592Z,9.60
2023-04-03T01:05:54.551Z,9.50
2023-04-03T01:10:56.762Z,9.50
2023-04-03T01:16:05.539Z,9.50
2023-04-03T01:21:38.318Z,9.40
2023-04-03T01:26:40.471Z,9.50
2023-04-03T01:31:52.474Z,9.60
2023-04-03T01:36:54.845Z,9.50
2023-04-03T01:41:57.495Z,9.50
2023-04-03T01:47:08.172Z,9.50
2023-04-03T01:52:10.729Z,9.50
2023-04-03T01:57:14.541Z,9.50
2023-04-03T02:02:16.863Z,9.40
2023-04-03T02:07:18.800Z,9.30
2023-04-03T02:12:20.773Z,9.30
2023-04-03T02:17:22.805Z,9.30
2023-04-03T02:22:24.781Z,9.20
2023-04-03T02:27:26.983Z,9.20
2023-04-03T02:32:29.036Z,9.00
2023-04-03T02:37:31.673Z,9.00
2023-04-03T02:42:34.245Z,8.80
2023-04-03T02:47:36.381Z,8.60
2023-04-03T02:52:38.385Z,8.50
2023-04-03T02:57:40.368Z,8.50
2023-04-03T03:02:42.672Z,8.50
2023-04-03T03:07:44.725Z,8.50
2023-04-03T03:12:46.722Z,8.60
2023-04-03T03:17:48.593Z,8.60
2023-04-03T03:22:50.646Z,8.50
2023-04-03T03:27:52.455Z,8.50
2023-04-03T03:32:54.351Z,8.40
2023-04-03T03:38:01.763Z,8.40
2023-04-03T03:43:03.683Z,8.40
2023-04-03T03:48:06.285Z,8.30
2023-04-03T03:53:08.096Z,8.20
2023-04-03T03:58:10.831Z,8.20
2023-04-03T04:03:13.752Z,8.10
2023-04-03T04:08:16.540Z,8.10
2023-04-03T04:13:20.312Z,8.00
2023-04-03T04:18:23.514Z,8.00
2023-04-03T04:23:25.616Z,8.00
2023-04-03T04:28:28.202Z,8.00
2023-04-03T04:33:32.119Z,7.90
2023-04-03T04:38:36.548Z,7.90
2023-04-03T04:43:38.892Z,7.80
2023-04-03T04:48:41.482Z,7.70
2023-04-03T04:53:44.294Z,7.70
2023-04-03T04:58:49.130Z,7.70
2023-04-03T05:03:57.108Z,7.70
2023-04-03T05:09:00.604Z,7.70
2023-04-03T05:14:06.176Z,7.70
2023-04-03T05:19:08.518Z,7.70
2023-04-03T05:24:10.858Z,7.60
2023-04-03T05:29:15.986Z,7.60
2023-04-03T05:34:18.507Z,7.60
2023-04-03T05:39:23.873Z,7.60
2023-04-03T05:44:26.769Z,7.70
2023-04-03T05:49:30.428Z,7.70
2023-04-03T05:54:32.436Z,7.70
2023-04-03T05:59:44.875Z,7.60
2023-04-03T06:04:48.848Z,7.70
2023-04-03T06:09:52.308Z,7.80
2023-04-03T06:14:54.264Z,7.90
2023-04-03T06:19:56.874Z,7.90
2023-04-03T06:24:59.383Z,7.90
2023-04-03T06:30:01.231Z,8.00
2023-04-03T06:35:03.259Z,8.00
2023-04-03T06:40:06.435Z,8.10
2023-04-03T06:45:08.994Z,8.20
2023-04-03T06:50:12.688Z,8.30
2023-04-03T06:55:14.755Z,8.30
2023-04-03T07:00:17.508Z,8.30
2023-04-03T07:05:19.926Z,8.30
2023-04-03T07:10:21.902Z,8.40
2023-04-03T07:15:23.824Z,8.50
2023-04-03T07:20:25.654Z,8.50
2023-04-03T07:25:27.645Z,8.40
2023-04-03T07:30:29.535Z,8.40
2023-04-03T07:35:31.445Z,8.50
2023-04-03T07:40:34.136Z,8.40
2023-04-03T07:45:37.071Z,8.50
2023-04-03T07:50:41.850Z,8.50
2023-04-03T07:55:44.124Z,8.60
2023-04-03T08:00:47.223Z,8.50
2023-04-03T08:05:50.685Z,8.60
2023-04-03T08:10:53.967Z,8.70
2023-04-03T08:15:58.164Z,8.80
2023-04-03T08:21:00.051Z,8.80
2023-04-03T08:26:14.327Z,8.80
2023-04-03T08:31:19.900Z,9.00
2023-04-03T08:36:24.733Z,9.00
2023-04-03T08:41:41.437Z,9.10
2023-04-03T08:46:55.348Z,9.20
2023-04-03T08:51:58.548Z,9.20
2023-04-03T08:57:03.682Z,9.20
2023-04-03T09:02:27.730Z,9.30
2023-04-03T09:07:40.419Z,9.30
2023-04-03T09:13:00.640Z,9.30
2023-04-03T09:18:16.890Z,9.30
2023-04-03T09:23:33.043Z,9.30
2023-04-03T09:28:49.282Z,9.40
2023-04-03T09:33:57.531Z,9.50
2023-04-03T09:39:10.757Z,9.50
2023-04-03T09:44:28.176Z,9.60
2023-04-03T09:49:30.417Z,9.70
2023-04-03T09:54:39.577Z,9.70
2023-04-03T09:59:57.286Z,9.80
2023-04-03T10:10:23.929Z,9.90
2023-04-03T10:15:40.608Z,10.00
2023-04-03T10:20:50.501Z,10.00
2023-04-03T10:26:27.606Z,10.10
2023-04-03T10:32:04.367Z,10.20
2023-04-03T10:37:27.064Z,10.30
2023-04-03T10:42:58.318Z,10.30
2023-04-03T10:48:38.426Z,10.40
2023-04-03T10:53:44.662Z,10.50
2023-04-03T10:58:51.032Z,10.70
2023-04-03T11:03:59.279Z,10.80
2023-04-03T11:09:10.768Z,11.00
2023-04-03T11:14:31.281Z,11.00
2023-04-03T11:19:58.815Z,11.00
2023-04-03T11:25:12.756Z,11.00
2023-04-03T11:30:21.976Z,11.00
2023-04-03T11:35:26.044Z,11.10
2023-04-03T11:40:33.864Z,11.10
2023-04-03T11:45:38.276Z,11.10
2023-04-03T11:50:43.085Z,11.10
2023-04-03T11:55:53.973Z,11.00
2023-04-03T12:01:00.504Z,10.90
2023-04-03T12:06:08.983Z,11.00
2023-04-03T12:11:14.371Z,11.00
2023-04-03T12:16:43.176Z,11.10
2023-04-03T12:22:07.354Z,11.10
2023-04-03T12:27:35.525Z,11.10
2023-04-03T12:32:43.293Z,11.10
2023-04-03T12:38:25.213Z,11.20
2023-04-03T12:44:09.303Z,11.30
2023-04-03T12:49:32.382Z,11.40
2023-04-03T12:54:37.892Z,11.20
2023-04-03T12:59:40.445Z,11.20
2023-04-03T13:04:42.523Z,11.10
2023-04-03T13:09:44.313Z,11.00
2023-04-03T13:15:02.356Z,11.00
2023-04-03T13:20:35.513Z,11.20
2023-04-03T13:25:43.102Z,11.20
2023-04-03T13:31:08.329Z,11.20
2023-04-03T13:36:23.590Z,11.30
2023-04-03T13:41:33.657Z,11.30
2023-04-03T13:46:35.634Z,11.40
2023-04-03T13:51:40.009Z,11.50
2023-04-03T13:56:43.116Z,11.40
2023-04-03T14:02:07.743Z,11.40
2023-04-03T14:07:09.571Z,11.50
2023-04-03T14:12:37.169Z,11.60
2023-04-03T14:17:39.701Z,11.60
2023-04-03T14:22:41.552Z,11.30
2023-04-03T14:27:47.074Z,11.40
2023-04-03T14:32:49.359Z,11.40
2023-04-03T14:37:52.988Z,11.40
2023-04-03T14:42:56.493Z,11.40
2023-04-03T14:47:59.896Z,11.40
2023-04-03T14:53:02.190Z,11.60
2023-04-03T14:58:04.094Z,11.50
2023-04-03T15:03:06.116Z,11.50
2023-04-03T15:08:17.847Z,11.50
2023-04-03T15:13:21.197Z,11.50
2023-04-03T15:18:30.851Z,11.40
2023-04-03T15:23:33.066Z,11.40
2023-04-03T15:28:42.838Z,11.30
2023-04-03T15:33:44.779Z,11.20
2023-04-03T15:38:46.589Z,11.20
2023-04-03T15:43:48.440Z,11.30
2023-04-03T15:48:50.756Z,11.30
2023-04-03T15:53:52.637Z,11.30
2023-04-03T15:58:54.651Z,11.30
2023-04-03T16:03:56.834Z,11.20
2023-04-03T16:08:59.051Z,11.20
2023-04-03T16:14:01.021Z,11.20
2023-04-03T16:19:03.115Z,11.20
2023-04-03T16:24:05.591Z,11.10
2023-04-03T16:29:07.391Z,11.10
2023-04-03T16:34:09.227Z,11.00
2023-04-03T16:39:11.141Z,10.80
2023-04-03T16:44:13.109Z,10.70
2023-04-03T16:49:15.072Z,10.70
2023-04-03T16:54:16.978Z,10.60
2023-04-03T16:59:18.939Z,10.50
2023-04-03T17:04:20.819Z,10.50
2023-04-03T17:09:23.752Z,10.50
2023-04-03T17:14:26.319Z,10.60
2023-04-03T17:19:29.281Z,10.40
2023-04-03T17:24:31.102Z,10.40
2023-04-03T17:29:32.974Z,10.30
2023-04-03T17:34:36.810Z,10.20
2023-04-03T17:39:38.857Z,10.20
2023-04-03T17:44:40.692Z,10.10
2023-04-03T17:49:42.514Z,10.10
2023-04-03T17:54:44.397Z,10.00
2023-04-03T17:59:46.656Z,9.90
2023-04-03T18:04:52.106Z,9.80
2023-04-03T18:09:55.792Z,9.70
2023-04-03T18:14:59.222Z,9.60
2023-04-03T18:20:01.846Z,9.50
2023-04-03T18:25:04.203Z,9.40
2023-04-03T18:30:13.363Z,9.30
2023-04-03T18:35:16.030Z,9.40
2023-04-03T18:40:18.026Z,9.30
2023-04-03T18:45:23.419Z,9.30
2023-04-03T18:50:25.922Z,9.20
2023-04-03T18:55:28.380Z,9.10
2023-04-03T19:00:30.526Z,9.10
2023-04-03T19:05:33.055Z,9.10
2023-04-03T19:10:35.012Z,9.10
2023-04-03T19:15:36.992Z,9.00
2023-04-03T19:20:39.029Z,9.00
2023-04-03T19:25:41.639Z,9.00
2023-04-03T19:30:47.257Z,9.10
2023-04-03T19:35:49.374Z,9.10
2023-04-03T19:40:51.462Z,9.10
2023-04-03T19:45:53.625Z,9.10
2023-04-03T19:50:55.916Z,9.00
2023-04-03T19:55:58.398Z,9.00
2023-04-03T20:01:00.739Z,8.80
2023-04-03T20:06:04.437Z,8.70
2023-04-03T20:11:07.068Z,8.60
2023-04-03T20:16:10.169Z,8.60
2023-04-03T20:21:12.221Z,8.50
2023-04-03T20:26:23.538Z,8.50
2023-04-03T20:31:29.984Z,8.50
2023-04-03T20:36:33.476Z,8.40
2023-04-03T20:41:38.565Z,8.30
2023-04-03T20:51:54.182Z,8.10
2023-04-03T20:56:56.228Z,8.00
2023-04-03T21:01:58.591Z,7.90
2023-04-03T21:07:39.029Z,7.80
2023-04-03T21:13:20.915Z,7.80
2023-04-03T21:18:48.092Z,7.70
2023-04-03T21:23:51.461Z,7.60
2023-04-03T21:28:54.280Z,7.50
2023-04-03T21:33:56.229Z,7.50
2023-04-03T21:38:58.864Z,7.40
2023-04-03T21:44:01.316Z,7.40
2023-04-03T21:49:03.502Z,7.30
2023-04-03T21:54:05.681Z,7.30
2023-04-03T21:59:07.630Z,7.20
2023-04-03T22:04:09.738Z,7.20
2023-04-03T22:09:11.721Z,7.20
2023-04-03T22:14:13.637Z,7.20
2023-04-03T22:19:15.679Z,7.10
2023-04-03T22:24:20.285Z,7.10
2023-04-03T22:29:22.189Z,7.10
2023-04-03T22:34:24.575Z,7.20
2023-04-03T22:39:26.560Z,7.10
2023-04-03T22:44:34.966Z,6.90
2023-04-03T22:49:39.197Z,6.80
2023-04-03T22:54:41.262Z,6.80
2023-04-03T22:59:43.239Z,6.70
2023-04-03T23:04:45.237Z,6.60
2023-04-03T23:09:47.517Z,6.60
2023-04-03T23:14:49.747Z,6.50
2023-04-03T23:19:52.557Z,6.50
2023-04-03T23:24:54.543Z,6.40
2023-04-03T23:29:57.060Z,6.40
2023-04-03T23:34:59.005Z,6.30
2023-04-03T23:40:02.257Z,6.10
2023-04-03T23:45:04.642Z,6.00
2023-04-03T23:50:07.319Z,6.00
2023-04-03T23:55:09.652Z,5.90
